Farley, Iowa
Current Conditions -  °F | °C
As of 10:53 PM on Friday 28 Nov 2014 (Local Time) from KDBQ Reporting Station
Haze Haze  
Wind Chill: -7°   Ceiling: Unl
Heat Index: -2°   Visibility: 5mi
Dew Point: -2°   Wind: 12mph
Humidity: 96%   Direction: 160°SSE
Pressure: 29.77"   Gusts: NA
Location:  42.44°N, 91.01°W
Report Text: KDBQ 290453Z AUTO 16010KT 5SM BR CLR M02/M02 A2977 RMK AO2 SLP094 T10171022
Loading
Personal Weather Stations






























Interactive Weather Map New forecast layout! Learn more

10-Day Weather Forecast

Advertisements
Track Severe Weather on mobile